sensor_id;sensor_type;location;lat;lon;timestamp;temperature;humidity
13426;DHT22;6785;57.918;12.530;2022-07-19T00:02:13;15.70;99.90
13426;DHT22;6785;57.918;12.530;2022-07-19T00:04:39;15.70;99.90
13426;DHT22;6785;57.918;12.530;2022-07-19T00:07:06;15.60;99.90
13426;DHT22;6785;57.918;12.530;2022-07-19T00:09:33;15.60;99.90
13426;DHT22;6785;57.918;12.530;2022-07-19T00:12:00;15.50;99.90
13426;DHT22;6785;57.918;12.530;2022-07-19T00:14:27;15.50;99.90
13426;DHT22;6785;57.918;12.530;2022-07-19T00:16:55;15.50;99.90
13426;DHT22;6785;57.918;12.530;2022-07-19T00:19:23;15.50;99.90
13426;DHT22;6785;57.918;12.530;2022-07-19T00:21:50;15.40;99.90
13426;DHT22;6785;57.918;12.530;2022-07-19T00:24:17;15.40;99.90
13426;DHT22;6785;57.918;12.530;2022-07-19T00:26:43;15.30;99.90
13426;DHT22;6785;57.918;12.530;2022-07-19T00:29:10;15.30;99.90
13426;DHT22;6785;57.918;12.530;2022-07-19T00:31:37;15.30;99.90
13426;DHT22;6785;57.918;12.530;2022-07-19T00:34:05;15.30;99.90
13426;DHT22;6785;57.918;12.530;2022-07-19T00:36:33;15.30;99.90
13426;DHT22;6785;57.918;12.530;2022-07-19T00:39:00;15.30;99.90
13426;DHT22;6785;57.918;12.530;2022-07-19T00:41:26;15.20;99.90
13426;DHT22;6785;57.918;12.530;2022-07-19T00:43:53;15.20;99.90
13426;DHT22;6785;57.918;12.530;2022-07-19T00:46:21;15.20;99.90
13426;DHT22;6785;57.918;12.530;2022-07-19T00:48:49;15.10;99.90
13426;DHT22;6785;57.918;12.530;2022-07-19T00:51:17;15.10;99.90
13426;DHT22;6785;57.918;12.530;2022-07-19T00:53:46;15.10;99.90
13426;DHT22;6785;57.918;12.530;2022-07-19T00:56:14;15.10;99.90
13426;DHT22;6785;57.918;12.530;2022-07-19T00:58:42;15.10;99.90
13426;DHT22;6785;57.918;12.530;2022-07-19T01:01:09;15.10;99.90
13426;DHT22;6785;57.918;12.530;2022-07-19T01:03:38;15.10;99.90
13426;DHT22;6785;57.918;12.530;2022-07-19T01:06:06;15.10;99.90
13426;DHT22;6785;57.918;12.530;2022-07-19T01:08:33;15.00;99.90
13426;DHT22;6785;57.918;12.530;2022-07-19T01:11:03;15.00;99.90
13426;DHT22;6785;57.918;12.530;2022-07-19T01:13:31;15.00;99.90
13426;DHT22;6785;57.918;12.530;2022-07-19T01:15:58;15.00;99.90
13426;DHT22;6785;57.918;12.530;2022-07-19T01:18:25;15.00;99.90
13426;DHT22;6785;57.918;12.530;2022-07-19T01:20:52;14.90;99.90
13426;DHT22;6785;57.918;12.530;2022-07-19T01:23:20;15.00;99.90
13426;DHT22;6785;57.918;12.530;2022-07-19T01:25:47;14.90;99.90
13426;DHT22;6785;57.918;12.530;2022-07-19T01:28:14;14.90;99.90
13426;DHT22;6785;57.918;12.530;2022-07-19T01:30:41;14.90;99.90
13426;DHT22;6785;57.918;12.530;2022-07-19T01:33:08;14.90;99.90
13426;DHT22;6785;57.918;12.530;2022-07-19T01:35:35;14.90;99.90
13426;DHT22;6785;57.918;12.530;2022-07-19T01:38:02;14.80;99.90
13426;DHT22;6785;57.918;12.530;2022-07-19T01:40:31;14.80;99.90
13426;DHT22;6785;57.918;12.530;2022-07-19T01:42:58;14.80;99.90
13426;DHT22;6785;57.918;12.530;2022-07-19T01:45:26;14.90;99.90
13426;DHT22;6785;57.918;12.530;2022-07-19T01:47:53;14.90;99.90
13426;DHT22;6785;57.918;12.530;2022-07-19T01:50:20;14.90;99.90
13426;DHT22;6785;57.918;12.530;2022-07-19T01:52:47;14.90;99.90
13426;DHT22;6785;57.918;12.530;2022-07-19T01:55:14;14.90;99.90
13426;DHT22;6785;57.918;12.530;2022-07-19T01:57:42;14.90;99.90
13426;DHT22;6785;57.918;12.530;2022-07-19T02:00:10;14.90;99.90
13426;DHT22;6785;57.918;12.530;2022-07-19T02:02:37;14.80;99.90
13426;DHT22;6785;57.918;12.530;2022-07-19T02:05:05;14.80;99.90
13426;DHT22;6785;57.918;12.530;2022-07-19T02:07:32;14.80;99.90
13426;DHT22;6785;57.918;12.530;2022-07-19T02:09:59;14.80;99.90
13426;DHT22;6785;57.918;12.530;2022-07-19T02:12:26;14.80;99.90
13426;DHT22;6785;57.918;12.530;2022-07-19T02:14:54;14.80;99.90
13426;DHT22;6785;57.918;12.530;2022-07-19T02:17:21;14.80;99.90
13426;DHT22;6785;57.918;12.530;2022-07-19T02:19:48;14.70;99.90
13426;DHT22;6785;57.918;12.530;2022-07-19T02:22:16;14.70;99.90
13426;DHT22;6785;57.918;12.530;2022-07-19T02:24:42;14.70;99.90
13426;DHT22;6785;57.918;12.530;2022-07-19T02:27:10;14.70;99.90
13426;DHT22;6785;57.918;12.530;2022-07-19T02:29:37;14.70;99.90
13426;DHT22;6785;57.918;12.530;2022-07-19T02:32:07;14.60;99.90
13426;DHT22;6785;57.918;12.530;2022-07-19T02:34:34;14.60;99.90
13426;DHT22;6785;57.918;12.530;2022-07-19T02:37:01;14.50;99.90
13426;DHT22;6785;57.918;12.530;2022-07-19T02:39:28;14.60;99.90
13426;DHT22;6785;57.918;12.530;2022-07-19T02:41:55;14.60;99.90
13426;DHT22;6785;57.918;12.530;2022-07-19T02:44:22;14.60;99.90
13426;DHT22;6785;57.918;12.530;2022-07-19T02:46:48;14.60;99.90
13426;DHT22;6785;57.918;12.530;2022-07-19T02:49:17;14.50;99.90
13426;DHT22;6785;57.918;12.530;2022-07-19T02:51:44;14.50;99.90
13426;DHT22;6785;57.918;12.530;2022-07-19T02:54:11;14.50;99.90
13426;DHT22;6785;57.918;12.530;2022-07-19T02:56:37;14.50;99.90
13426;DHT22;6785;57.918;12.530;2022-07-19T02:59:05;14.50;99.90
13426;DHT22;6785;57.918;12.530;2022-07-19T03:01:32;14.50;99.90
13426;DHT22;6785;57.918;12.530;2022-07-19T03:03:59;14.50;99.90
13426;DHT22;6785;57.918;12.530;2022-07-19T03:06:27;14.50;99.90
13426;DHT22;6785;57.918;12.530;2022-07-19T03:08:54;14.50;99.90
13426;DHT22;6785;57.918;12.530;2022-07-19T03:11:21;14.50;99.90
13426;DHT22;6785;57.918;12.530;2022-07-19T03:13:48;14.60;99.90
13426;DHT22;6785;57.918;12.530;2022-07-19T03:16:15;14.50;99.90
13426;DHT22;6785;57.918;12.530;2022-07-19T03:18:42;14.50;99.90
13426;DHT22;6785;57.918;12.530;2022-07-19T03:21:09;14.50;99.90
13426;DHT22;6785;57.918;12.530;2022-07-19T03:23:37;14.50;99.90
13426;DHT22;6785;57.918;12.530;2022-07-19T03:26:05;14.50;99.90
13426;DHT22;6785;57.918;12.530;2022-07-19T03:28:32;14.60;99.90
13426;DHT22;6785;57.918;12.530;2022-07-19T03:30:59;14.60;99.90
13426;DHT22;6785;57.918;12.530;2022-07-19T03:33:26;14.60;99.90
13426;DHT22;6785;57.918;12.530;2022-07-19T03:35:53;14.60;99.90
13426;DHT22;6785;57.918;12.530;2022-07-19T03:38:20;14.60;99.90
13426;DHT22;6785;57.918;12.530;2022-07-19T03:40:49;14.60;99.90
13426;DHT22;6785;57.918;12.530;2022-07-19T03:43:16;14.60;99.90
13426;DHT22;6785;57.918;12.530;2022-07-19T03:45:43;14.60;99.90
13426;DHT22;6785;57.918;12.530;2022-07-19T03:48:10;14.70;99.90
13426;DHT22;6785;57.918;12.530;2022-07-19T03:50:37;14.70;99.90
13426;DHT22;6785;57.918;12.530;2022-07-19T03:53:05;14.80;99.90
13426;DHT22;6785;57.918;12.530;2022-07-19T03:55:32;14.80;99.90
13426;DHT22;6785;57.918;12.530;2022-07-19T03:58:01;14.80;99.90
13426;DHT22;6785;57.918;12.530;2022-07-19T04:00:27;14.90;99.90
13426;DHT22;6785;57.918;12.530;2022-07-19T04:02:54;14.90;99.90
13426;DHT22;6785;57.918;12.530;2022-07-19T04:05:21;14.90;99.90
13426;DHT22;6785;57.918;12.530;2022-07-19T04:07:48;14.90;99.90
13426;DHT22;6785;57.918;12.530;2022-07-19T04:10:15;14.90;99.90
13426;DHT22;6785;57.918;12.530;2022-07-19T04:12:42;15.00;99.90
13426;DHT22;6785;57.918;12.530;2022-07-19T04:15:10;14.90;99.90
13426;DHT22;6785;57.918;12.530;2022-07-19T04:17:37;14.90;99.90
13426;DHT22;6785;57.918;12.530;2022-07-19T04:20:05;15.00;99.90
13426;DHT22;6785;57.918;12.530;2022-07-19T04:22:33;15.00;99.90
13426;DHT22;6785;57.918;12.530;2022-07-19T04:25:00;15.00;99.90
13426;DHT22;6785;57.918;12.530;2022-07-19T04:27:28;15.10;99.90
13426;DHT22;6785;57.918;12.530;2022-07-19T04:29:55;15.10;99.90
13426;DHT22;6785;57.918;12.530;2022-07-19T04:32:23;15.10;99.90
13426;DHT22;6785;57.918;12.530;2022-07-19T04:34:50;15.10;99.90
13426;DHT22;6785;57.918;12.530;2022-07-19T04:37:17;15.10;99.90
13426;DHT22;6785;57.918;12.530;2022-07-19T04:39:44;15.20;99.90
13426;DHT22;6785;57.918;12.530;2022-07-19T04:42:11;15.20;99.90
13426;DHT22;6785;57.918;12.530;2022-07-19T04:44:38;15.20;99.90
13426;DHT22;6785;57.918;12.530;2022-07-19T04:47:05;15.30;99.90
13426;DHT22;6785;57.918;12.530;2022-07-19T04:49:33;15.40;99.90
13426;DHT22;6785;57.918;12.530;2022-07-19T04:52:00;15.50;99.90
13426;DHT22;6785;57.918;12.530;2022-07-19T04:54:27;15.60;99.90
13426;DHT22;6785;57.918;12.530;2022-07-19T04:56:54;15.70;99.90
13426;DHT22;6785;57.918;12.530;2022-07-19T04:59:21;15.80;99.90
13426;DHT22;6785;57.918;12.530;2022-07-19T05:01:48;15.90;99.90
13426;DHT22;6785;57.918;12.530;2022-07-19T05:04:18;16.10;99.90
13426;DHT22;6785;57.918;12.530;2022-07-19T05:06:46;16.20;99.90
13426;DHT22;6785;57.918;12.530;2022-07-19T05:09:15;16.30;99.90
13426;DHT22;6785;57.918;12.530;2022-07-19T05:11:42;16.40;99.90
13426;DHT22;6785;57.918;12.530;2022-07-19T05:14:09;16.50;99.90
13426;DHT22;6785;57.918;12.530;2022-07-19T05:16:35;16.70;99.90
13426;DHT22;6785;57.918;12.530;2022-07-19T05:19:02;16.80;99.90
13426;DHT22;6785;57.918;12.530;2022-07-19T05:21:29;17.00;99.90
13426;DHT22;6785;57.918;12.530;2022-07-19T05:23:57;17.10;99.90
13426;DHT22;6785;57.918;12.530;2022-07-19T05:26:24;17.10;99.90
13426;DHT22;6785;57.918;12.530;2022-07-19T05:28:51;17.20;99.90
13426;DHT22;6785;57.918;12.530;2022-07-19T05:31:18;17.30;99.90
13426;DHT22;6785;57.918;12.530;2022-07-19T05:33:45;17.40;99.90
13426;DHT22;6785;57.918;12.530;2022-07-19T05:36:12;17.40;99.90
13426;DHT22;6785;57.918;12.530;2022-07-19T05:38:39;17.50;99.90
13426;DHT22;6785;57.918;12.530;2022-07-19T05:41:08;17.60;99.90
13426;DHT22;6785;57.918;12.530;2022-07-19T05:43:37;17.60;99.90
13426;DHT22;6785;57.918;12.530;2022-07-19T05:46:04;17.70;99.90
13426;DHT22;6785;57.918;12.530;2022-07-19T05:48:32;17.80;99.90
13426;DHT22;6785;57.918;12.530;2022-07-19T05:50:59;17.90;99.90
13426;DHT22;6785;57.918;12.530;2022-07-19T05:53:27;18.00;99.90
13426;DHT22;6785;57.918;12.530;2022-07-19T05:55:54;18.10;99.90
13426;DHT22;6785;57.918;12.530;2022-07-19T05:58:22;18.20;99.90
13426;DHT22;6785;57.918;12.530;2022-07-19T06:00:50;18.30;99.90
13426;DHT22;6785;57.918;12.530;2022-07-19T06:03:34;18.40;99.90
13426;DHT22;6785;57.918;12.530;2022-07-19T06:06:01;18.50;99.90
13426;DHT22;6785;57.918;12.530;2022-07-19T06:08:27;18.50;99.90
13426;DHT22;6785;57.918;12.530;2022-07-19T06:10:54;18.60;99.90
13426;DHT22;6785;57.918;12.530;2022-07-19T06:13:22;18.60;99.90
13426;DHT22;6785;57.918;12.530;2022-07-19T06:15:49;18.50;99.90
13426;DHT22;6785;57.918;12.530;2022-07-19T06:18:16;18.40;99.90
13426;DHT22;6785;57.918;12.530;2022-07-19T06:20:43;18.50;99.90
13426;DHT22;6785;57.918;12.530;2022-07-19T06:23:10;18.60;99.90
13426;DHT22;6785;57.918;12.530;2022-07-19T06:25:38;18.70;99.90
13426;DHT22;6785;57.918;12.530;2022-07-19T06:28:05;18.90;99.90
13426;DHT22;6785;57.918;12.530;2022-07-19T06:30:33;19.10;99.90
13426;DHT22;6785;57.918;12.530;2022-07-19T06:33:00;19.30;99.90
13426;DHT22;6785;57.918;12.530;2022-07-19T06:35:27;19.60;99.90
13426;DHT22;6785;57.918;12.530;2022-07-19T06:37:54;19.80;99.90
13426;DHT22;6785;57.918;12.530;2022-07-19T06:40:21;20.00;99.90
13426;DHT22;6785;57.918;12.530;2022-07-19T06:42:48;20.20;99.90
13426;DHT22;6785;57.918;12.530;2022-07-19T06:45:14;20.30;99.90
13426;DHT22;6785;57.918;12.530;2022-07-19T06:47:43;20.50;99.90
13426;DHT22;6785;57.918;12.530;2022-07-19T06:50:10;20.60;99.90
13426;DHT22;6785;57.918;12.530;2022-07-19T06:52:37;20.70;99.90
13426;DHT22;6785;57.918;12.530;2022-07-19T06:55:05;20.80;99.90
13426;DHT22;6785;57.918;12.530;2022-07-19T06:57:32;21.00;99.90
13426;DHT22;6785;57.918;12.530;2022-07-19T06:59:59;21.10;99.90
13426;DHT22;6785;57.918;12.530;2022-07-19T07:02:25;21.40;99.90
13426;DHT22;6785;57.918;12.530;2022-07-19T07:04:54;21.60;99.90
13426;DHT22;6785;57.918;12.530;2022-07-19T07:07:21;21.70;99.90
13426;DHT22;6785;57.918;12.530;2022-07-19T07:09:47;21.70;99.90
13426;DHT22;6785;57.918;12.530;2022-07-19T07:12:14;21.80;99.90
13426;DHT22;6785;57.918;12.530;2022-07-19T07:14:41;22.00;99.90
13426;DHT22;6785;57.918;12.530;2022-07-19T07:17:08;21.90;99.90
13426;DHT22;6785;57.918;12.530;2022-07-19T07:19:35;21.80;99.90
13426;DHT22;6785;57.918;12.530;2022-07-19T07:22:03;22.00;99.90
13426;DHT22;6785;57.918;12.530;2022-07-19T07:24:30;21.80;99.90
13426;DHT22;6785;57.918;12.530;2022-07-19T07:26:57;22.00;99.90
13426;DHT22;6785;57.918;12.530;2022-07-19T07:29:24;22.10;99.90
13426;DHT22;6785;57.918;12.530;2022-07-19T07:31:51;22.30;99.90
13426;DHT22;6785;57.918;12.530;2022-07-19T07:34:18;22.50;99.90
13426;DHT22;6785;57.918;12.530;2022-07-19T07:36:45;22.70;99.90
13426;DHT22;6785;57.918;12.530;2022-07-19T07:39:13;23.00;99.90
13426;DHT22;6785;57.918;12.530;2022-07-19T07:41:40;23.10;99.90
13426;DHT22;6785;57.918;12.530;2022-07-19T07:44:07;23.20;99.90
13426;DHT22;6785;57.918;12.530;2022-07-19T07:46:34;23.20;99.90
13426;DHT22;6785;57.918;12.530;2022-07-19T07:49:01;23.30;99.90
13426;DHT22;6785;57.918;12.530;2022-07-19T07:51:29;23.00;99.90
13426;DHT22;6785;57.918;12.530;2022-07-19T07:53:56;23.10;99.90
13426;DHT22;6785;57.918;12.530;2022-07-19T07:56:25;22.80;99.90
13426;DHT22;6785;57.918;12.530;2022-07-19T07:58:53;22.80;99.90
13426;DHT22;6785;57.918;12.530;2022-07-19T08:01:20;22.90;99.90
13426;DHT22;6785;57.918;12.530;2022-07-19T08:03:47;23.10;99.90
13426;DHT22;6785;57.918;12.530;2022-07-19T08:06:14;23.30;99.90
13426;DHT22;6785;57.918;12.530;2022-07-19T08:08:41;23.50;99.90
13426;DHT22;6785;57.918;12.530;2022-07-19T08:11:08;23.90;99.90
13426;DHT22;6785;57.918;12.530;2022-07-19T08:13:37;23.80;99.90
13426;DHT22;6785;57.918;12.530;2022-07-19T08:16:05;23.70;99.90
13426;DHT22;6785;57.918;12.530;2022-07-19T08:18:32;23.80;99.90
13426;DHT22;6785;57.918;12.530;2022-07-19T08:21:00;23.90;99.90
13426;DHT22;6785;57.918;12.530;2022-07-19T08:23:26;23.70;99.90
13426;DHT22;6785;57.918;12.530;2022-07-19T08:25:53;23.30;99.90
13426;DHT22;6785;57.918;12.530;2022-07-19T08:28:20;23.30;99.90
13426;DHT22;6785;57.918;12.530;2022-07-19T08:30:48;23.10;99.90
13426;DHT22;6785;57.918;12.530;2022-07-19T08:33:15;22.80;99.90
13426;DHT22;6785;57.918;12.530;2022-07-19T08:35:42;22.90;99.90
13426;DHT22;6785;57.918;12.530;2022-07-19T08:38:09;22.80;99.90
13426;DHT22;6785;57.918;12.530;2022-07-19T08:40:37;22.80;99.90
13426;DHT22;6785;57.918;12.530;2022-07-19T08:43:08;22.80;99.90
13426;DHT22;6785;57.918;12.530;2022-07-19T08:45:36;22.80;99.90
13426;DHT22;6785;57.918;12.530;2022-07-19T08:48:07;22.70;99.90
13426;DHT22;6785;57.918;12.530;2022-07-19T08:50:34;22.80;99.90
13426;DHT22;6785;57.918;12.530;2022-07-19T08:53:01;22.80;99.90
13426;DHT22;6785;57.918;12.530;2022-07-19T08:55:30;22.90;99.90
13426;DHT22;6785;57.918;12.530;2022-07-19T08:57:57;23.20;99.90
13426;DHT22;6785;57.918;12.530;2022-07-19T09:00:23;23.20;99.90
13426;DHT22;6785;57.918;12.530;2022-07-19T09:02:52;23.60;99.90
13426;DHT22;6785;57.918;12.530;2022-07-19T09:05:20;23.80;99.90
13426;DHT22;6785;57.918;12.530;2022-07-19T09:08:01;23.70;99.90
13426;DHT22;6785;57.918;12.530;2022-07-19T09:10:28;23.50;99.90
13426;DHT22;6785;57.918;12.530;2022-07-19T09:13:06;23.60;99.90
13426;DHT22;6785;57.918;12.530;2022-07-19T09:15:43;23.60;99.90
13426;DHT22;6785;57.918;12.530;2022-07-19T09:18:14;23.50;99.90
13426;DHT22;6785;57.918;12.530;2022-07-19T09:20:44;23.60;99.90
13426;DHT22;6785;57.918;12.530;2022-07-19T09:23:11;23.70;99.90
13426;DHT22;6785;57.918;12.530;2022-07-19T09:25:39;23.70;99.90
13426;DHT22;6785;57.918;12.530;2022-07-19T09:28:08;23.80;99.90
13426;DHT22;6785;57.918;12.530;2022-07-19T09:30:38;23.70;99.90
13426;DHT22;6785;57.918;12.530;2022-07-19T09:33:07;23.70;99.90
13426;DHT22;6785;57.918;12.530;2022-07-19T09:35:40;23.80;99.90
13426;DHT22;6785;57.918;12.530;2022-07-19T09:38:20;23.80;99.90
13426;DHT22;6785;57.918;12.530;2022-07-19T09:40:49;23.80;99.90
13426;DHT22;6785;57.918;12.530;2022-07-19T09:43:17;23.80;99.90
13426;DHT22;6785;57.918;12.530;2022-07-19T09:45:45;23.80;99.90
13426;DHT22;6785;57.918;12.530;2022-07-19T09:48:11;23.80;99.90
13426;DHT22;6785;57.918;12.530;2022-07-19T09:50:39;23.70;99.90
13426;DHT22;6785;57.918;12.530;2022-07-19T09:53:06;23.50;99.90
13426;DHT22;6785;57.918;12.530;2022-07-19T09:55:35;23.70;99.90
13426;DHT22;6785;57.918;12.530;2022-07-19T09:58:02;23.80;99.90
13426;DHT22;6785;57.918;12.530;2022-07-19T10:00:29;23.70;99.90
13426;DHT22;6785;57.918;12.530;2022-07-19T10:02:58;23.80;99.90
13426;DHT22;6785;57.918;12.530;2022-07-19T10:05:26;23.90;99.90
13426;DHT22;6785;57.918;12.530;2022-07-19T10:07:54;23.90;99.90
13426;DHT22;6785;57.918;12.530;2022-07-19T10:10:23;23.90;99.90
13426;DHT22;6785;57.918;12.530;2022-07-19T10:12:57;24.10;99.90
13426;DHT22;6785;57.918;12.530;2022-07-19T10:15:25;24.20;99.90
13426;DHT22;6785;57.918;12.530;2022-07-19T10:18:05;24.20;99.90
13426;DHT22;6785;57.918;12.530;2022-07-19T10:20:36;24.40;99.90
13426;DHT22;6785;57.918;12.530;2022-07-19T10:23:03;24.40;99.90
13426;DHT22;6785;57.918;12.530;2022-07-19T10:25:42;24.40;99.90
13426;DHT22;6785;57.918;12.530;2022-07-19T10:28:36;24.50;99.90
13426;DHT22;6785;57.918;12.530;2022-07-19T10:31:24;24.70;99.90
13426;DHT22;6785;57.918;12.530;2022-07-19T10:33:58;24.60;99.90
13426;DHT22;6785;57.918;12.530;2022-07-19T10:36:38;24.70;99.90
13426;DHT22;6785;57.918;12.530;2022-07-19T10:39:23;24.90;99.90
13426;DHT22;6785;57.918;12.530;2022-07-19T10:42:20;24.90;99.90
13426;DHT22;6785;57.918;12.530;2022-07-19T10:45:14;24.80;99.90
13426;DHT22;6785;57.918;12.530;2022-07-19T10:47:58;24.70;99.90
13426;DHT22;6785;57.918;12.530;2022-07-19T10:53:53;24.50;99.90
13426;DHT22;6785;57.918;12.530;2022-07-19T10:56:24;24.50;99.90
13426;DHT22;6785;57.918;12.530;2022-07-19T10:58:52;24.70;99.90
13426;DHT22;6785;57.918;12.530;2022-07-19T11:01:22;24.70;99.90
13426;DHT22;6785;57.918;12.530;2022-07-19T11:03:51;24.60;99.90
13426;DHT22;6785;57.918;12.530;2022-07-19T11:06:20;24.70;99.90
13426;DHT22;6785;57.918;12.530;2022-07-19T11:08:47;24.60;99.90
13426;DHT22;6785;57.918;12.530;2022-07-19T11:11:15;24.70;99.90
13426;DHT22;6785;57.918;12.530;2022-07-19T11:13:44;25.00;99.90
13426;DHT22;6785;57.918;12.530;2022-07-19T11:16:11;25.00;99.90
13426;DHT22;6785;57.918;12.530;2022-07-19T11:18:39;25.10;99.90
13426;DHT22;6785;57.918;12.530;2022-07-19T11:21:09;24.90;99.90
13426;DHT22;6785;57.918;12.530;2022-07-19T11:23:38;24.80;99.90
13426;DHT22;6785;57.918;12.530;2022-07-19T11:26:07;24.90;99.90
13426;DHT22;6785;57.918;12.530;2022-07-19T11:28:35;24.90;99.90
13426;DHT22;6785;57.918;12.530;2022-07-19T11:31:11;25.10;99.90
13426;DHT22;6785;57.918;12.530;2022-07-19T11:33:39;25.20;99.90
13426;DHT22;6785;57.918;12.530;2022-07-19T11:36:07;25.40;99.90
13426;DHT22;6785;57.918;12.530;2022-07-19T11:38:38;25.60;99.90
13426;DHT22;6785;57.918;12.530;2022-07-19T11:41:12;25.50;99.90
13426;DHT22;6785;57.918;12.530;2022-07-19T11:43:41;25.40;99.90
13426;DHT22;6785;57.918;12.530;2022-07-19T11:46:08;25.40;99.90
13426;DHT22;6785;57.918;12.530;2022-07-19T11:48:35;25.30;99.90
13426;DHT22;6785;57.918;12.530;2022-07-19T11:51:06;25.30;99.90
13426;DHT22;6785;57.918;12.530;2022-07-19T11:53:34;25.30;99.90
13426;DHT22;6785;57.918;12.530;2022-07-19T11:56:03;25.40;99.90
13426;DHT22;6785;57.918;12.530;2022-07-19T11:58:31;25.40;99.90
13426;DHT22;6785;57.918;12.530;2022-07-19T12:01:04;25.30;99.90
13426;DHT22;6785;57.918;12.530;2022-07-19T12:03:31;25.30;99.90
13426;DHT22;6785;57.918;12.530;2022-07-19T12:06:01;25.40;99.90
13426;DHT22;6785;57.918;12.530;2022-07-19T12:08:41;25.60;99.90
13426;DHT22;6785;57.918;12.530;2022-07-19T12:11:19;25.80;99.90
13426;DHT22;6785;57.918;12.530;2022-07-19T12:13:47;25.80;99.90
13426;DHT22;6785;57.918;12.530;2022-07-19T12:16:14;25.90;99.90
13426;DHT22;6785;57.918;12.530;2022-07-19T12:18:47;25.90;99.90
13426;DHT22;6785;57.918;12.530;2022-07-19T12:21:25;26.00;99.90
13426;DHT22;6785;57.918;12.530;2022-07-19T12:24:18;26.00;99.90
13426;DHT22;6785;57.918;12.530;2022-07-19T12:27:00;26.20;99.90
13426;DHT22;6785;57.918;12.530;2022-07-19T12:29:29;26.30;99.90
13426;DHT22;6785;57.918;12.530;2022-07-19T12:31:59;26.30;99.90
13426;DHT22;6785;57.918;12.530;2022-07-19T12:34:27;26.40;99.90
13426;DHT22;6785;57.918;12.530;2022-07-19T12:36:55;26.40;99.90
13426;DHT22;6785;57.918;12.530;2022-07-19T12:39:27;26.40;99.90
13426;DHT22;6785;57.918;12.530;2022-07-19T12:42:00;26.50;99.90
13426;DHT22;6785;57.918;12.530;2022-07-19T12:44:27;26.50;99.90
13426;DHT22;6785;57.918;12.530;2022-07-19T12:46:55;26.50;99.90
13426;DHT22;6785;57.918;12.530;2022-07-19T12:49:22;26.40;99.90
13426;DHT22;6785;57.918;12.530;2022-07-19T12:51:49;26.50;99.90
13426;DHT22;6785;57.918;12.530;2022-07-19T12:54:16;26.50;99.90
13426;DHT22;6785;57.918;12.530;2022-07-19T12:56:44;26.40;99.90
13426;DHT22;6785;57.918;12.530;2022-07-19T12:59:11;26.50;99.90
13426;DHT22;6785;57.918;12.530;2022-07-19T13:01:55;26.50;99.90
13426;DHT22;6785;57.918;12.530;2022-07-19T13:04:23;26.60;99.90
13426;DHT22;6785;57.918;12.530;2022-07-19T13:06:49;26.70;99.90
13426;DHT22;6785;57.918;12.530;2022-07-19T13:09:16;26.70;99.90
13426;DHT22;6785;57.918;12.530;2022-07-19T13:11:45;26.70;99.90
13426;DHT22;6785;57.918;12.530;2022-07-19T13:14:12;26.70;99.90
13426;DHT22;6785;57.918;12.530;2022-07-19T13:16:39;26.70;99.90
13426;DHT22;6785;57.918;12.530;2022-07-19T13:19:06;26.60;99.90
13426;DHT22;6785;57.918;12.530;2022-07-19T13:21:33;26.60;99.90
13426;DHT22;6785;57.918;12.530;2022-07-19T13:24:00;26.80;99.90
13426;DHT22;6785;57.918;12.530;2022-07-19T13:26:27;26.70;99.90
13426;DHT22;6785;57.918;12.530;2022-07-19T13:28:55;26.80;99.90
13426;DHT22;6785;57.918;12.530;2022-07-19T13:31:22;26.80;99.90
13426;DHT22;6785;57.918;12.530;2022-07-19T13:33:49;26.80;99.90
13426;DHT22;6785;57.918;12.530;2022-07-19T13:36:16;26.80;99.90
13426;DHT22;6785;57.918;12.530;2022-07-19T13:38:43;26.80;99.90
13426;DHT22;6785;57.918;12.530;2022-07-19T13:41:10;26.80;99.90
13426;DHT22;6785;57.918;12.530;2022-07-19T13:43:37;26.90;99.90
13426;DHT22;6785;57.918;12.530;2022-07-19T13:46:05;27.00;99.90
13426;DHT22;6785;57.918;12.530;2022-07-19T13:48:32;27.00;99.90
13426;DHT22;6785;57.918;12.530;2022-07-19T13:50:59;27.10;99.90
13426;DHT22;6785;57.918;12.530;2022-07-19T13:53:26;27.10;99.90
13426;DHT22;6785;57.918;12.530;2022-07-19T13:55:53;27.00;99.90
13426;DHT22;6785;57.918;12.530;2022-07-19T13:58:20;27.00;99.90
13426;DHT22;6785;57.918;12.530;2022-07-19T14:00:46;26.80;99.90
13426;DHT22;6785;57.918;12.530;2022-07-19T14:03:16;26.90;99.90
13426;DHT22;6785;57.918;12.530;2022-07-19T14:05:43;26.90;99.90
13426;DHT22;6785;57.918;12.530;2022-07-19T14:08:10;27.00;99.90
13426;DHT22;6785;57.918;12.530;2022-07-19T14:10:38;27.10;99.90
13426;DHT22;6785;57.918;12.530;2022-07-19T14:13:05;27.00;99.90
13426;DHT22;6785;57.918;12.530;2022-07-19T14:15:32;27.00;99.90
13426;DHT22;6785;57.918;12.530;2022-07-19T14:17:59;27.10;99.90
13426;DHT22;6785;57.918;12.530;2022-07-19T14:20:28;27.10;99.90
13426;DHT22;6785;57.918;12.530;2022-07-19T14:22:55;27.10;99.90
13426;DHT22;6785;57.918;12.530;2022-07-19T14:25:22;27.10;99.90
13426;DHT22;6785;57.918;12.530;2022-07-19T14:27:49;26.90;99.90
13426;DHT22;6785;57.918;12.530;2022-07-19T14:30:16;26.90;99.90
13426;DHT22;6785;57.918;12.530;2022-07-19T14:32:43;26.90;99.90
13426;DHT22;6785;57.918;12.530;2022-07-19T14:35:09;26.80;99.90
13426;DHT22;6785;57.918;12.530;2022-07-19T14:37:38;26.80;99.90
13426;DHT22;6785;57.918;12.530;2022-07-19T14:40:05;26.80;99.90
13426;DHT22;6785;57.918;12.530;2022-07-19T14:42:33;26.80;99.90
13426;DHT22;6785;57.918;12.530;2022-07-19T14:45:00;26.80;99.90
13426;DHT22;6785;57.918;12.530;2022-07-19T14:47:28;26.80;99.90
13426;DHT22;6785;57.918;12.530;2022-07-19T14:49:54;26.80;99.90
13426;DHT22;6785;57.918;12.530;2022-07-19T14:52:21;26.70;99.90
13426;DHT22;6785;57.918;12.530;2022-07-19T14:54:49;26.60;99.90
13426;DHT22;6785;57.918;12.530;2022-07-19T14:57:17;26.60;99.90
13426;DHT22;6785;57.918;12.530;2022-07-19T14:59:43;26.40;99.90
13426;DHT22;6785;57.918;12.530;2022-07-19T15:02:10;26.30;99.90
13426;DHT22;6785;57.918;12.530;2022-07-19T15:04:37;26.30;99.90
13426;DHT22;6785;57.918;12.530;2022-07-19T15:07:04;26.20;99.90
13426;DHT22;6785;57.918;12.530;2022-07-19T15:09:31;26.00;99.90
13426;DHT22;6785;57.918;12.530;2022-07-19T15:11:59;25.90;99.90
13426;DHT22;6785;57.918;12.530;2022-07-19T15:14:26;25.90;99.90
13426;DHT22;6785;57.918;12.530;2022-07-19T15:16:55;25.80;99.90
13426;DHT22;6785;57.918;12.530;2022-07-19T15:19:22;25.70;99.90
13426;DHT22;6785;57.918;12.530;2022-07-19T15:21:49;25.70;99.90
13426;DHT22;6785;57.918;12.530;2022-07-19T15:24:16;25.60;99.90
13426;DHT22;6785;57.918;12.530;2022-07-19T15:26:43;25.60;99.90
13426;DHT22;6785;57.918;12.530;2022-07-19T15:29:12;25.60;99.90
13426;DHT22;6785;57.918;12.530;2022-07-19T15:31:39;25.60;99.90
13426;DHT22;6785;57.918;12.530;2022-07-19T15:34:06;25.60;99.90
13426;DHT22;6785;57.918;12.530;2022-07-19T15:36:33;25.50;99.90
13426;DHT22;6785;57.918;12.530;2022-07-19T15:39:00;25.40;99.90
13426;DHT22;6785;57.918;12.530;2022-07-19T15:41:27;25.30;99.90